Denzil, Canada
Current Conditions -  °F | °C
As of 8:00 AM on Wednesday 22 Oct 2014 (Local Time) from CYKY Reporting Station
Broken Clouds Broken Clouds  
Wind Chill: 41°   Ceiling: 5000
Heat Index: 41°   Visibility: 15mi
Dew Point: 39°   Wind: 2mph
Humidity: 93%   Direction: NA
Pressure: 29.76"   Gusts: NA
Location:  52.23°N, 109.65°W
Report Text: CYKY 221400Z VRB02KT 15SM BKN050 05/04 A2976 RMK SC7 SLP091
Loading
Personal Weather Stations






























Interactive Weather Map
Tropical Storm Tracking
New forecast layout! Learn more

10-Day Weather Forecast

Advertisements
Track Severe Weather on mobile